createdAt,value
2023-05-16T00:01:48.789Z,10.60
2023-05-16T00:04:16.226Z,10.73
2023-05-16T00:06:43.418Z,9.37
2023-05-16T00:09:10.285Z,9.60
2023-05-16T00:11:37.122Z,9.60
2023-05-16T00:14:03.799Z,8.80
2023-05-16T00:16:30.703Z,8.23
2023-05-16T00:19:00.938Z,8.90
2023-05-16T00:21:28.272Z,9.10
2023-05-16T00:23:54.918Z,8.80
2023-05-16T00:26:21.798Z,8.53
2023-05-16T00:28:48.767Z,8.33
2023-05-16T00:31:15.718Z,8.73
2023-05-16T00:33:42.646Z,8.83
2023-05-16T00:36:09.614Z,8.93
2023-05-16T00:38:37.432Z,9.27
2023-05-16T00:41:04.447Z,7.97
2023-05-16T00:43:31.498Z,8.13
2023-05-16T00:45:58.381Z,8.33
2023-05-16T00:48:25.372Z,7.73
2023-05-16T00:50:53.231Z,7.60
2023-05-16T00:53:22.147Z,8.20
2023-05-16T00:55:48.928Z,7.30
2023-05-16T00:58:16.466Z,8.07
2023-05-16T01:00:47.217Z,8.13
2023-05-16T01:03:15.421Z,8.10
2023-05-16T01:05:42.252Z,7.60
2023-05-16T01:08:08.885Z,7.20
2023-05-16T01:10:48.578Z,7.80
2023-05-16T01:13:27.260Z,7.40
2023-05-16T01:16:04.723Z,7.17
2023-05-16T01:18:38.586Z,7.43
2023-05-16T01:21:13.496Z,7.20
2023-05-16T01:24:00.432Z,6.63
2023-05-16T01:26:28.370Z,6.67
2023-05-16T01:28:55.429Z,6.67
2023-05-16T01:31:23.910Z,6.63
2023-05-16T01:33:51.827Z,6.77
2023-05-16T01:36:43.273Z,6.37
2023-05-16T01:39:27.081Z,6.90
2023-05-16T01:42:01.084Z,6.70
2023-05-16T01:44:40.327Z,6.50
2023-05-16T01:47:12.053Z,6.20
2023-05-16T01:49:44.737Z,6.53
2023-05-16T01:52:21.629Z,6.57
2023-05-16T01:54:52.890Z,6.97
2023-05-16T01:57:25.419Z,7.00
2023-05-16T01:59:52.686Z,6.70
2023-05-16T02:02:20.022Z,5.93
2023-05-16T02:04:46.854Z,6.47
2023-05-16T02:07:15.788Z,6.63
2023-05-16T02:09:45.088Z,6.43
2023-05-16T02:12:11.740Z,5.83
2023-05-16T02:14:38.514Z,5.43
2023-05-16T02:17:06.694Z,6.27
2023-05-16T02:19:33.364Z,6.10
2023-05-16T02:22:00.657Z,6.07
2023-05-16T02:24:27.379Z,6.10
2023-05-16T02:26:55.754Z,6.77
2023-05-16T02:29:22.384Z,5.90
2023-05-16T02:31:49.310Z,6.10
2023-05-16T02:34:16.518Z,5.97
2023-05-16T02:36:43.261Z,5.87
2023-05-16T02:39:10.340Z,5.90
2023-05-16T02:41:37.308Z,5.80
2023-05-16T02:44:04.258Z,5.97
2023-05-16T02:46:33.505Z,5.63
2023-05-16T02:49:00.585Z,5.93
2023-05-16T02:51:28.365Z,5.90
2023-05-16T02:53:57.160Z,5.87
2023-05-16T02:56:23.934Z,5.40
2023-05-16T02:58:51.295Z,5.33
2023-05-16T03:01:18.242Z,5.70
2023-05-16T03:03:45.353Z,5.77
2023-05-16T03:06:12.616Z,5.50
2023-05-16T03:08:39.277Z,5.53
2023-05-16T03:11:06.010Z,5.73
2023-05-16T03:13:33.066Z,5.60
2023-05-16T03:16:00.204Z,5.80
2023-05-16T03:18:26.891Z,5.53
2023-05-16T03:20:53.736Z,5.73
2023-05-16T03:23:21.293Z,5.37
2023-05-16T03:25:48.182Z,5.50
2023-05-16T03:28:16.572Z,5.50
2023-05-16T03:30:43.423Z,5.37
2023-05-16T03:33:10.417Z,4.93
2023-05-16T03:35:37.985Z,5.07
2023-05-16T03:38:04.770Z,4.77
2023-05-16T03:40:31.529Z,4.97
2023-05-16T03:42:58.140Z,4.70
2023-05-16T03:45:25.072Z,4.63
2023-05-16T03:47:52.194Z,4.50
2023-05-16T03:50:18.984Z,4.53
2023-05-16T03:52:45.815Z,4.20
2023-05-16T03:55:14.539Z,4.33
2023-05-16T03:57:44.741Z,4.00
2023-05-16T04:00:12.683Z,4.30
2023-05-16T04:02:40.955Z,4.37
2023-05-16T04:05:09.231Z,4.23
2023-05-16T04:07:37.070Z,4.37
2023-05-16T04:10:05.024Z,4.30
2023-05-16T04:12:32.021Z,4.23
2023-05-16T04:14:58.872Z,4.20
2023-05-16T04:17:25.654Z,4.60
2023-05-16T04:19:52.302Z,3.60
2023-05-16T04:22:21.881Z,4.20
2023-05-16T04:24:49.042Z,3.97
2023-05-16T04:27:15.845Z,4.23
2023-05-16T04:29:42.666Z,3.73
2023-05-16T04:32:09.617Z,3.23
2023-05-16T04:34:39.742Z,3.10
2023-05-16T04:37:07.669Z,2.70
2023-05-16T04:39:35.371Z,2.63
2023-05-16T04:42:04.361Z,2.40
2023-05-16T04:44:31.657Z,2.73
2023-05-16T04:46:58.502Z,2.13
2023-05-16T04:49:25.505Z,2.03
2023-05-16T04:51:52.165Z,1.80
2023-05-16T04:54:18.811Z,1.50
2023-05-16T04:56:45.463Z,1.60
2023-05-16T04:59:12.085Z,1.50
2023-05-16T05:01:39.467Z,1.67
2023-05-16T05:04:06.522Z,1.40
2023-05-16T05:06:33.355Z,1.00
2023-05-16T05:09:00.026Z,1.10
2023-05-16T05:11:27.310Z,1.13
2023-05-16T05:13:54.057Z,1.07
2023-05-16T05:16:20.888Z,1.00
2023-05-16T05:18:47.819Z,1.50
2023-05-16T05:21:14.638Z,1.10
2023-05-16T05:23:41.359Z,0.90
2023-05-16T05:26:08.102Z,0.90
2023-05-16T05:28:34.763Z,0.97
2023-05-16T05:31:01.417Z,0.83
2023-05-16T05:33:30.893Z,1.00
2023-05-16T05:35:57.789Z,1.00
2023-05-16T05:38:24.598Z,0.80
2023-05-16T05:40:51.365Z,0.90
2023-05-16T05:43:18.023Z,0.70
2023-05-16T05:45:44.807Z,0.80
2023-05-16T05:48:12.832Z,0.60
2023-05-16T05:50:39.733Z,0.67
2023-05-16T05:53:06.580Z,0.90
2023-05-16T05:55:33.304Z,0.90
2023-05-16T05:57:59.946Z,1.30
2023-05-16T06:00:26.739Z,0.90
2023-05-16T06:02:53.650Z,0.70
2023-05-16T06:05:20.414Z,0.50
2023-05-16T06:07:47.060Z,0.60
2023-05-16T06:10:14.047Z,0.40
2023-05-16T06:12:40.752Z,0.50
2023-05-16T06:15:08.367Z,0.40
2023-05-16T06:17:35.121Z,0.50
2023-05-16T06:20:01.892Z,0.40
2023-05-16T06:22:29.355Z,0.40
2023-05-16T06:24:55.977Z,0.30
2023-05-16T06:27:22.914Z,0.30
2023-05-16T06:29:49.541Z,0.30
2023-05-16T06:32:16.169Z,0.30
2023-05-16T06:34:43.042Z,0.83
2023-05-16T06:37:09.677Z,0.40
2023-05-16T06:39:37.089Z,0.30
2023-05-16T06:42:04.033Z,0.30
2023-05-16T06:44:32.556Z,0.33
2023-05-16T06:46:59.290Z,0.30
2023-05-16T06:49:26.025Z,0.40
2023-05-16T06:51:52.738Z,0.50
2023-05-16T06:54:19.454Z,0.40
2023-05-16T06:56:46.184Z,0.50
2023-05-16T06:59:13.159Z,0.60
2023-05-16T07:01:39.899Z,0.70
2023-05-16T07:04:06.920Z,0.67
2023-05-16T07:06:33.846Z,0.70
2023-05-16T07:09:00.608Z,0.67
2023-05-16T07:11:27.262Z,0.73
2023-05-16T07:13:54.080Z,1.00
2023-05-16T07:16:20.954Z,0.80
2023-05-16T07:18:47.717Z,0.87
2023-05-16T07:21:14.540Z,0.90
2023-05-16T07:23:41.619Z,1.10
2023-05-16T07:26:08.393Z,0.87
2023-05-16T07:28:35.079Z,1.30
2023-05-16T07:31:01.735Z,1.10
2023-05-16T07:33:28.615Z,1.33
2023-05-16T07:36:07.737Z,1.30
2023-05-16T07:38:42.308Z,1.40
2023-05-16T07:41:09.201Z,1.17
2023-05-16T07:43:36.763Z,1.10
2023-05-16T07:46:03.658Z,1.10
2023-05-16T07:48:30.399Z,1.00
2023-05-16T07:50:57.854Z,1.17
2023-05-16T07:53:24.640Z,1.10
2023-05-16T07:55:51.616Z,0.93
2023-05-16T07:58:18.396Z,1.20
2023-05-16T08:00:45.432Z,1.07
2023-05-16T08:03:12.365Z,1.30
2023-05-16T08:05:39.780Z,1.10
2023-05-16T08:08:06.520Z,1.10
2023-05-16T08:10:33.268Z,1.20
2023-05-16T08:12:59.944Z,1.30
2023-05-16T08:15:28.431Z,1.50
2023-05-16T08:17:58.601Z,1.27
2023-05-16T08:20:26.349Z,1.43
2023-05-16T08:22:53.386Z,1.60
2023-05-16T08:25:20.490Z,1.60
2023-05-16T08:27:49.456Z,1.50
2023-05-16T08:30:16.230Z,1.70
2023-05-16T08:32:42.929Z,1.50
2023-05-16T08:35:11.108Z,1.60
2023-05-16T08:37:37.928Z,1.50
2023-05-16T08:40:08.278Z,1.70
2023-05-16T08:42:35.457Z,1.27
2023-05-16T08:45:02.639Z,1.77
2023-05-16T08:47:31.708Z,1.83
2023-05-16T08:49:59.330Z,2.10
2023-05-16T08:52:30.577Z,1.80
2023-05-16T08:55:09.933Z,2.13
2023-05-16T08:57:38.110Z,2.50
2023-05-16T09:00:13.294Z,2.93
2023-05-16T09:02:41.930Z,3.23
2023-05-16T09:05:11.748Z,3.50
2023-05-16T09:07:38.655Z,4.30
2023-05-16T09:10:07.062Z,3.80
2023-05-16T09:12:34.517Z,4.10
2023-05-16T09:15:06.050Z,4.30
2023-05-16T09:17:45.636Z,4.63
2023-05-16T09:20:14.486Z,4.57
2023-05-16T09:22:51.877Z,5.63
2023-05-16T09:25:29.698Z,9.87
2023-05-16T09:27:59.839Z,8.57
2023-05-16T09:30:31.990Z,5.63
2023-05-16T09:32:59.793Z,4.40
2023-05-16T09:37:56.791Z,3.90
2023-05-16T09:40:24.114Z,3.90
2023-05-16T09:43:04.795Z,3.50
2023-05-16T09:45:32.803Z,4.00
2023-05-16T09:48:10.703Z,3.60
2023-05-16T09:50:37.950Z,4.33
2023-05-16T09:53:05.694Z,4.80
2023-05-16T09:55:33.406Z,4.17
2023-05-16T09:58:00.372Z,3.90
2023-05-16T10:00:32.205Z,4.43
2023-05-16T10:03:03.258Z,4.03
2023-05-16T10:05:31.480Z,3.50
2023-05-16T10:07:58.679Z,3.30
2023-05-16T10:10:25.644Z,3.10
2023-05-16T10:12:53.329Z,2.60
2023-05-16T10:15:20.977Z,2.90
2023-05-16T10:17:53.028Z,2.83
2023-05-16T10:20:21.423Z,2.33
2023-05-16T10:22:51.633Z,2.00
2023-05-16T10:25:30.267Z,1.50
2023-05-16T10:27:58.427Z,1.90
2023-05-16T10:30:25.550Z,1.47
2023-05-16T10:32:53.348Z,1.73
2023-05-16T10:35:21.726Z,1.57
2023-05-16T10:37:50.541Z,3.00
2023-05-16T10:40:18.450Z,4.43
2023-05-16T10:42:57.216Z,3.03
2023-05-16T10:45:24.234Z,1.80
2023-05-16T10:48:01.490Z,3.20
2023-05-16T10:50:44.931Z,3.33
2023-05-16T10:53:34.437Z,3.63
2023-05-16T10:56:03.881Z,3.73
2023-05-16T10:58:35.094Z,3.20
2023-05-16T11:01:29.182Z,3.10
2023-05-16T11:03:58.953Z,2.67
2023-05-16T11:06:36.164Z,2.90
2023-05-16T11:09:11.956Z,2.60
2023-05-16T11:11:39.287Z,2.20
2023-05-16T11:14:06.139Z,2.00
2023-05-16T11:16:34.701Z,2.17
2023-05-16T11:19:06.567Z,1.83
2023-05-16T11:22:05.137Z,2.13
2023-05-16T11:24:32.204Z,1.92
2023-05-16T11:27:02.848Z,2.20
2023-05-16T11:29:32.433Z,1.83
2023-05-16T11:32:00.678Z,2.43
2023-05-16T11:34:27.757Z,1.97
2023-05-16T11:36:54.939Z,1.83
2023-05-16T11:39:24.377Z,1.90
2023-05-16T11:41:52.144Z,1.63
2023-05-16T11:44:19.165Z,1.60
2023-05-16T11:46:46.605Z,2.10
2023-05-16T11:49:13.640Z,2.00
2023-05-16T11:51:41.606Z,1.83
2023-05-16T11:54:10.511Z,1.40
2023-05-16T11:56:37.466Z,1.40
2023-05-16T11:59:04.481Z,1.53
2023-05-16T12:01:38.868Z,1.27
2023-05-16T12:04:14.079Z,1.30
2023-05-16T12:06:44.230Z,1.30
2023-05-16T12:09:18.151Z,1.10
2023-05-16T12:11:45.310Z,1.40
2023-05-16T12:14:13.822Z,1.50
2023-05-16T12:16:43.943Z,1.13
2023-05-16T12:19:11.518Z,1.45
2023-05-16T12:21:38.813Z,1.33
2023-05-16T12:24:09.045Z,1.42
2023-05-16T12:26:35.939Z,1.43
2023-05-16T12:29:05.548Z,1.60
2023-05-16T12:31:37.030Z,1.30
2023-05-16T12:34:03.827Z,1.40
2023-05-16T12:36:34.962Z,0.90
2023-05-16T12:39:03.651Z,1.10
2023-05-16T12:41:31.414Z,1.60
2023-05-16T12:44:12.170Z,1.20
2023-05-16T12:46:43.665Z,1.23
2023-05-16T12:49:10.426Z,1.60
2023-05-16T12:51:37.547Z,1.40
2023-05-16T12:54:11.845Z,1.40
2023-05-16T12:56:40.617Z,1.60
2023-05-16T12:59:08.639Z,1.50
2023-05-16T13:01:36.585Z,1.60
2023-05-16T13:04:04.676Z,1.20
2023-05-16T13:06:44.960Z,1.30
2023-05-16T13:09:19.227Z,1.33
2023-05-16T13:11:45.940Z,1.30
2023-05-16T13:14:12.899Z,1.50
2023-05-16T13:16:39.745Z,1.70
2023-05-16T13:19:06.758Z,2.00
2023-05-16T13:21:33.536Z,1.57
2023-05-16T13:24:00.320Z,1.80
2023-05-16T13:26:27.337Z,1.50
2023-05-16T13:28:55.062Z,1.90
2023-05-16T13:31:25.353Z,2.30
2023-05-16T13:33:52.186Z,1.50
2023-05-16T13:36:18.877Z,1.40
2023-05-16T13:38:45.630Z,1.60
2023-05-16T13:41:12.316Z,1.33
2023-05-16T13:43:38.987Z,1.23
2023-05-16T13:46:06.081Z,1.50
2023-05-16T13:48:32.865Z,1.23
2023-05-16T13:50:59.717Z,1.47
2023-05-16T13:53:26.899Z,1.10
2023-05-16T13:55:54.392Z,1.20
2023-05-16T13:58:22.241Z,1.30
2023-05-16T14:00:49.149Z,1.57
2023-05-16T14:03:16.207Z,1.10
2023-05-16T14:05:42.999Z,1.20
2023-05-16T14:08:09.763Z,1.10
2023-05-16T14:10:36.432Z,1.00
2023-05-16T14:13:03.204Z,1.23
2023-05-16T14:15:30.184Z,0.97
2023-05-16T14:17:57.116Z,1.10
2023-05-16T14:20:23.822Z,1.20
2023-05-16T14:22:50.570Z,1.93
2023-05-16T14:25:17.473Z,1.13
2023-05-16T14:27:44.309Z,1.20
2023-05-16T14:30:11.470Z,0.97
2023-05-16T14:32:38.188Z,0.90
2023-05-16T14:35:05.467Z,0.90
2023-05-16T14:37:32.443Z,1.00
2023-05-16T14:40:00.813Z,1.17
2023-05-16T14:42:27.568Z,1.00
2023-05-16T14:44:54.216Z,0.90
2023-05-16T14:47:20.901Z,0.80
2023-05-16T14:49:47.561Z,0.90
2023-05-16T14:52:14.353Z,0.87
2023-05-16T14:54:41.086Z,0.80
2023-05-16T14:57:08.119Z,1.23
2023-05-16T14:59:34.807Z,1.20
2023-05-16T15:02:01.706Z,0.93
2023-05-16T15:04:28.921Z,1.00
2023-05-16T15:06:55.947Z,0.97
2023-05-16T15:09:22.760Z,0.70
2023-05-16T15:11:49.474Z,0.70
2023-05-16T15:14:16.277Z,1.00
2023-05-16T15:16:43.313Z,0.90
2023-05-16T15:19:10.218Z,0.80
2023-05-16T15:21:37.085Z,1.10
2023-05-16T15:24:04.077Z,1.00
2023-05-16T15:26:31.030Z,0.97
2023-05-16T15:28:57.813Z,0.90
2023-05-16T15:31:24.597Z,0.80
2023-05-16T15:33:51.341Z,1.13
2023-05-16T15:36:18.105Z,0.90
2023-05-16T15:38:45.718Z,0.80
2023-05-16T15:41:31.429Z,1.10
2023-05-16T15:44:00.404Z,0.90
2023-05-16T15:46:27.386Z,0.70
2023-05-16T15:48:54.167Z,0.90
2023-05-16T15:51:21.114Z,1.00
2023-05-16T15:53:47.965Z,0.80
2023-05-16T15:56:14.698Z,0.90
2023-05-16T15:58:41.489Z,0.80
2023-05-16T16:01:08.135Z,0.90
2023-05-16T16:03:34.909Z,1.00
2023-05-16T16:06:01.803Z,1.07
2023-05-16T16:08:28.617Z,0.80
2023-05-16T16:10:55.500Z,4.00
2023-05-16T16:13:24.112Z,9.77
2023-05-16T16:15:50.979Z,3.63
2023-05-16T16:18:17.744Z,1.17
2023-05-16T16:20:44.494Z,1.00
2023-05-16T16:23:11.396Z,1.00
2023-05-16T16:25:38.183Z,0.80
2023-05-16T16:28:04.985Z,1.00
2023-05-16T16:30:34.518Z,1.03
2023-05-16T16:33:01.368Z,0.97
2023-05-16T16:35:28.654Z,0.90
2023-05-16T16:40:29.110Z,1.07
2023-05-16T16:42:55.797Z,0.97
2023-05-16T16:45:22.716Z,1.30
2023-05-16T16:47:49.572Z,1.20
2023-05-16T16:50:16.337Z,0.73
2023-05-16T16:52:43.303Z,1.20
2023-05-16T16:55:10.059Z,0.90
2023-05-16T16:57:36.949Z,1.03
2023-05-16T17:00:04.180Z,0.97
2023-05-16T17:02:31.962Z,1.07
2023-05-16T17:04:58.687Z,0.90
2023-05-16T17:07:25.367Z,0.80
2023-05-16T17:09:53.881Z,1.10
2023-05-16T17:12:21.996Z,0.80
2023-05-16T17:14:50.301Z,1.00
2023-05-16T17:17:18.455Z,0.90
2023-05-16T17:19:46.862Z,0.97
2023-05-16T17:22:13.896Z,1.00
2023-05-16T17:24:40.822Z,1.13
2023-05-16T17:27:07.545Z,0.97
2023-05-16T17:29:34.270Z,0.93
2023-05-16T17:32:01.126Z,1.57
2023-05-16T17:34:27.888Z,1.10
2023-05-16T17:36:54.540Z,0.93
2023-05-16T17:39:21.343Z,1.00
2023-05-16T17:41:47.995Z,0.80
2023-05-16T17:44:14.647Z,0.83
2023-05-16T17:46:42.510Z,1.00
2023-05-16T17:49:09.931Z,0.80
2023-05-16T17:51:47.883Z,1.00
2023-05-16T17:54:16.068Z,1.13
2023-05-16T17:56:42.890Z,1.40
2023-05-16T17:59:10.714Z,1.40
2023-05-16T18:01:38.249Z,1.30
2023-05-16T18:04:06.798Z,1.23
2023-05-16T18:06:37.824Z,1.23
2023-05-16T18:09:09.921Z,0.90
2023-05-16T18:11:39.437Z,0.80
2023-05-16T18:14:09.166Z,0.63
2023-05-16T18:16:36.225Z,0.70
2023-05-16T18:19:04.873Z,0.60
2023-05-16T18:21:32.168Z,0.70
2023-05-16T18:23:59.534Z,0.80
2023-05-16T18:26:28.501Z,0.80
2023-05-16T18:28:55.556Z,0.70
2023-05-16T18:31:22.593Z,0.90
2023-05-16T18:33:49.865Z,0.90
2023-05-16T18:36:16.637Z,0.90
2023-05-16T18:38:43.473Z,1.40
2023-05-16T18:41:10.170Z,2.40
2023-05-16T18:43:36.916Z,1.53
2023-05-16T18:46:04.322Z,0.90
2023-05-16T18:48:31.915Z,0.90
2023-05-16T18:50:59.623Z,0.90
2023-05-16T18:53:26.337Z,1.50
2023-05-16T18:55:53.111Z,0.93
2023-05-16T18:58:20.222Z,0.97
2023-05-16T19:00:47.175Z,0.90
2023-05-16T19:03:13.952Z,1.23
2023-05-16T19:05:40.788Z,1.13
2023-05-16T19:08:07.627Z,0.90
2023-05-16T19:10:37.990Z,1.10
2023-05-16T19:13:08.757Z,1.20
2023-05-16T19:15:36.449Z,0.93
2023-05-16T19:18:04.776Z,0.83
2023-05-16T19:20:32.959Z,1.00
2023-05-16T19:22:59.692Z,1.10
2023-05-16T19:25:26.976Z,1.20
2023-05-16T19:27:54.101Z,1.10
2023-05-16T19:30:22.952Z,1.07
2023-05-16T19:32:51.196Z,1.50
2023-05-16T19:35:18.862Z,1.17
2023-05-16T19:37:46.306Z,0.83
2023-05-16T19:40:15.393Z,1.10
2023-05-16T19:42:43.829Z,1.33
2023-05-16T19:45:10.912Z,1.40
2023-05-16T19:47:37.654Z,1.50
2023-05-16T19:50:05.038Z,1.60
2023-05-16T19:52:31.828Z,1.50
2023-05-16T19:55:01.675Z,1.73
2023-05-16T19:57:28.557Z,1.00
2023-05-16T19:59:55.254Z,1.37
2023-05-16T20:02:24.326Z,1.50
2023-05-16T20:04:51.657Z,1.30
2023-05-16T20:07:18.548Z,1.30
2023-05-16T20:09:45.360Z,1.30
2023-05-16T20:12:12.760Z,1.43
2023-05-16T20:14:39.624Z,1.70
2023-05-16T20:17:06.823Z,1.50
2023-05-16T20:19:34.265Z,1.60
2023-05-16T20:22:01.408Z,1.20
2023-05-16T20:24:28.110Z,1.37
2023-05-16T20:26:54.742Z,1.40
2023-05-16T20:29:21.477Z,1.37
2023-05-16T20:31:48.181Z,1.00
2023-05-16T20:34:14.930Z,1.30
2023-05-16T20:36:41.716Z,1.20
2023-05-16T20:39:09.020Z,1.50
2023-05-16T20:41:35.799Z,1.23
2023-05-16T20:44:02.498Z,1.40
2023-05-16T20:46:29.273Z,1.00
2023-05-16T20:48:56.055Z,1.53
2023-05-16T20:51:22.772Z,1.40
2023-05-16T20:53:49.679Z,1.20
2023-05-16T20:56:16.501Z,1.27
2023-05-16T20:58:43.763Z,1.47
2023-05-16T21:01:10.566Z,1.50
2023-05-16T21:03:37.464Z,1.20
2023-05-16T21:06:04.482Z,1.27
2023-05-16T21:08:31.747Z,1.40
2023-05-16T21:10:58.652Z,1.50
2023-05-16T21:13:25.797Z,1.50
2023-05-16T21:15:52.645Z,1.43
2023-05-16T21:18:19.501Z,1.50
2023-05-16T21:20:46.292Z,1.33
2023-05-16T21:23:13.019Z,1.50
2023-05-16T21:25:41.133Z,1.60
2023-05-16T21:28:08.076Z,1.70
2023-05-16T21:30:34.819Z,1.77
2023-05-16T21:33:01.873Z,1.57
2023-05-16T21:35:28.945Z,1.70
2023-05-16T21:37:55.992Z,1.63
2023-05-16T21:40:24.979Z,1.40
2023-05-16T21:42:52.705Z,1.70
2023-05-16T21:45:19.456Z,1.80
2023-05-16T21:47:46.914Z,1.57
2023-05-16T21:50:13.882Z,1.63
2023-05-16T21:52:41.040Z,1.50
2023-05-16T21:55:08.654Z,1.77
2023-05-16T21:57:35.493Z,1.90
2023-05-16T22:00:06.516Z,1.70
2023-05-16T22:02:35.173Z,1.43
2023-05-16T22:05:02.559Z,1.70
2023-05-16T22:07:29.679Z,2.07
2023-05-16T22:09:56.893Z,1.77
2023-05-16T22:12:24.059Z,2.20
2023-05-16T22:14:51.092Z,2.00
2023-05-16T22:17:19.548Z,1.80
2023-05-16T22:19:46.718Z,1.73
2023-05-16T22:22:13.547Z,1.47
2023-05-16T22:24:40.389Z,1.67
2023-05-16T22:27:07.110Z,1.83
2023-05-16T22:29:38.070Z,1.63
2023-05-16T22:32:09.025Z,1.57
2023-05-16T22:34:41.725Z,1.80
2023-05-16T22:37:09.673Z,1.83
2023-05-16T22:39:36.566Z,1.90
2023-05-16T22:42:03.640Z,1.80
2023-05-16T22:44:30.418Z,1.63
2023-05-16T22:46:57.084Z,1.63
2023-05-16T22:49:23.819Z,1.97
2023-05-16T22:51:50.606Z,1.83
2023-05-16T22:54:17.441Z,1.97
2023-05-16T22:56:44.168Z,1.50
2023-05-16T22:59:11.020Z,2.00
2023-05-16T23:01:37.834Z,1.77
2023-05-16T23:04:04.904Z,1.77
2023-05-16T23:06:32.504Z,1.77
2023-05-16T23:09:04.213Z,1.73
2023-05-16T23:11:31.942Z,2.07
2023-05-16T23:13:58.662Z,1.60
2023-05-16T23:16:25.427Z,1.90
2023-05-16T23:18:52.231Z,1.93
2023-05-16T23:21:18.999Z,1.70
2023-05-16T23:23:45.638Z,1.57
2023-05-16T23:26:12.379Z,1.67
2023-05-16T23:28:39.347Z,1.83
2023-05-16T23:31:06.356Z,2.00
2023-05-16T23:33:33.071Z,1.90
2023-05-16T23:35:59.787Z,1.80
2023-05-16T23:38:27.367Z,1.70
2023-05-16T23:40:54.079Z,1.80
2023-05-16T23:43:21.231Z,2.13
2023-05-16T23:45:47.903Z,1.90
2023-05-16T23:48:14.748Z,2.10
2023-05-16T23:50:41.588Z,2.00
2023-05-16T23:53:08.329Z,2.03
2023-05-16T23:55:35.016Z,1.53
2023-05-16T23:58:01.770Z,2.07
